x

Mt Desert Rock, Me (mdrm1) Weather Station

9:00 - Wed 20th Sep 2017 All times are EDT. -4 hours from GMT.

  • Wind
    20mph, 21mph gusts
  • Luft Temp 59°f
  • Sea Pressure 1015.4mb
  • Mt Desert Rock, Me
  • Mt Desert Rock, Me

More Historic Weather Station data

Upgrade to MSW Pro to gain access to the past 30 days of data for over 8000 Wavebouys and Weather Stations around the globe.

Join

Comparision Forecast

View Surf forecast
   
Mi 09/20 9:00 20 21 mph 1015.4mb 59f
8:00 17 18 mph 1015.5mb 58f
7:00 20 22 mph 1015.7mb 58f
6:00 20 21 mph 1015.5mb 58f
5:00 18 20 mph 1015.5mb 57f
4:00 21 23 mph 1015.7mb 59f
3:00 20 20 mph 1016mb 60f
2:00 18 20 mph 1016.7mb 60f
1:00 13 15 mph 1017.5mb 57f
12:00 17 17 mph 1017.6mb 57f
Di 09/19 11:00 18 20 mph 1018.3mb 57f
10:00 18 20 mph 1018.7mb 57f
9:00 17 18 mph 1018.8mb 57f
8:00 15 16 mph 1019mb 57f
7:00 17 18 mph 1018.9mb 58f
6:00 17 20 mph 1019mb 60f
5:00 20 20 mph 1019.1mb 58f
4:00 17 18 mph 1019.4mb 57f
3:00 17 18 mph 1019.8mb 57f
2:00 18 20 mph 1020.2mb 57f
1:00 17 18 mph 1020.9mb 57f
12:00 17 18 mph 1021.8mb 57f
11:00 15 15 mph 1022mb 57f
10:00 14 15 mph 1022.1mb -
9:00 11 13 mph 1022.4mb -
8:00 15 15 mph 1022mb -
7:00 16 16 mph 1022mb -
6:00 14 16 mph 1022mb -
5:00 15 16 mph 1022.2mb -
4:00 15 15 mph 1022.3mb -
3:00 14 14 mph 1022.4mb -
2:00 11 13 mph 1022.8mb -
1:00 11 13 mph 1023.1mb -
12:00 10 11 mph 1023.3mb -
Mo 09/18 11:00 10 10 mph 1023.9mb 56f
10:00 9 9 mph 1023.9mb 55f
9:00 10 10 mph 1023.7mb 56f
8:00 9 10 mph 1023.7mb 56f
7:00 11 13 mph 1023.2mb 57f
6:00 9 9 mph 1023.2mb 57f
5:00 10 10 mph 1023.3mb 57f
4:00 9 9 mph 1023.4mb 57f
3:00 9 9 mph 1023.6mb 57f
2:00 8 8 mph 1023.4mb 58f
1:00 6 6 mph 1023.3mb 58f
12:00 5 5 mph 1023.3mb 58f
11:00 3 5 mph 1023.7mb 57f
10:00 7 7 mph 1023.8mb 58f
9:00 7 7 mph 1023.9mb 57f
8:00 11 11 mph 1023.5mb 57f
7:00 9 9 mph 1023.1mb 57f
6:00 8 8 mph 1022.3mb 57f
5:00 9 9 mph 1022.1mb 56f
4:00 7 7 mph 1022mb 56f
3:00  -  1 mph 1022.4mb 57f
2:00 2 2 mph 1022.1mb 58f
1:00 5 5 mph 1021.9mb 57f
12:00 5 5 mph 1022.2mb 56f
So 09/17 11:00 3 5 mph 1022.3mb 57f
10:00 6 7 mph 1022.4mb 57f
9:00 6 7 mph 1022.1mb 57f
8:00 10 11 mph 1021.7mb 57f
7:00 7 8 mph 1021.6mb 58f
6:00 11 11 mph 1021.6mb 58f
5:00 8 8 mph 1021.9mb 58f
4:00 8 8 mph 1021.7mb 58f
3:00 7 7 mph 1021.7mb 58f
2:00 6 7 mph 1021.6mb 57f
1:00 7 7 mph 1022mb 57f
12:00 7 7 mph 1022.3mb 58f
11:00 6 6 mph 1022.7mb 57f
10:00 6 6 mph 1022.7mb 57f
9:00  -  1 mph 1023.1mb 57f
8:00 2 3 mph 1022.6mb 56f
7:00 7 8 mph 1022.1mb 56f
6:00 11 11 mph 1021.6mb 56f
5:00 9 9 mph 1021.2mb 55f
4:00 7 7 mph 1020.8mb 56f
3:00 11 13 mph 1020.6mb 56f
2:00 10 10 mph 1021.1mb 56f
1:00 8 9 mph 1021.2mb 56f
12:00 7 8 mph 1021.1mb 56f
Sa 09/16 11:00 7 8 mph 1021.2mb 57f
10:00 9 10 mph 1021.1mb 58f
9:00 11 11 mph 1021.2mb 58f
8:00 9 9 mph 1021.1mb 57f
7:00 8 8 mph 1020.8mb 56f
6:00 13 14 mph 1020.6mb 57f
5:00 11 11 mph 1020.7mb 58f
4:00 11 13 mph 1020.5mb 58f
3:00 8 8 mph 1020.6mb 58f